createdAt,value
2018-10-19T00:01:47.414Z,8.23
2018-10-19T00:04:21.469Z,7.80
2018-10-19T00:06:55.916Z,8.37
2018-10-19T00:12:03.832Z,8.15
2018-10-19T00:14:37.702Z,8.03
2018-10-19T00:17:11.831Z,7.73
2018-10-19T00:19:46.315Z,7.87
2018-10-19T00:22:21.465Z,7.95
2018-10-19T00:24:56.048Z,7.57
2018-10-19T00:27:30.873Z,8.20
2018-10-19T00:30:05.146Z,8.03
2018-10-19T00:32:39.758Z,7.65
2018-10-19T00:35:13.837Z,7.73
2018-10-19T00:37:48.372Z,7.37
2018-10-19T00:40:23.467Z,7.40
2018-10-19T00:42:57.922Z,7.37
2018-10-19T00:48:23.794Z,6.87
2018-10-19T00:50:57.975Z,7.37
2018-10-19T00:56:04.909Z,7.30
2018-10-19T01:01:12.288Z,7.42
2018-10-19T01:03:46.799Z,7.13
2018-10-19T01:06:21.265Z,7.58
2018-10-19T01:08:55.362Z,7.30
2018-10-19T01:11:29.636Z,7.53
2018-10-19T01:14:04.586Z,7.33
2018-10-19T01:16:38.841Z,7.15
2018-10-19T01:19:13.300Z,7.05
2018-10-19T01:21:47.785Z,7.25
2018-10-19T01:24:22.460Z,7.30
2018-10-19T01:26:57.015Z,7.07
2018-10-19T01:29:32.781Z,7.05
2018-10-19T01:32:07.894Z,6.87
2018-10-19T01:37:16.870Z,7.60
2018-10-19T01:39:50.872Z,7.00
2018-10-19T01:42:25.988Z,6.90
2018-10-19T01:44:59.910Z,6.70
2018-10-19T01:47:34.468Z,6.75
2018-10-19T01:50:09.578Z,6.78
2018-10-19T01:52:44.453Z,6.13
2018-10-19T01:55:19.786Z,6.90
2018-10-19T01:57:54.797Z,6.53
2018-10-19T02:00:30.475Z,6.55
2018-10-19T02:03:06.459Z,6.40
2018-10-19T02:05:41.332Z,5.93
2018-10-19T02:08:15.463Z,6.40
2018-10-19T02:10:50.350Z,6.53
2018-10-19T02:13:25.878Z,6.83
2018-10-19T02:16:00.765Z,6.30
2018-10-19T02:18:36.289Z,6.63
2018-10-19T02:21:11.511Z,6.67
2018-10-19T02:23:47.257Z,6.50
2018-10-19T02:26:21.707Z,6.13
2018-10-19T02:28:55.472Z,6.37
2018-10-19T02:31:30.760Z,6.20
2018-10-19T02:34:05.278Z,6.50
2018-10-19T02:36:39.626Z,6.30
2018-10-19T02:39:14.538Z,6.00
2018-10-19T02:41:48.745Z,6.17
2018-10-19T02:44:22.916Z,6.43
2018-10-19T02:49:30.439Z,6.12
2018-10-19T02:52:04.311Z,6.07
2018-10-19T02:54:38.819Z,5.70
2018-10-19T02:57:13.035Z,6.17
2018-10-19T02:59:47.782Z,5.67
2018-10-19T03:02:20.815Z,5.73
2018-10-19T03:04:56.472Z,6.23
2018-10-19T03:07:30.652Z,5.90
2018-10-19T03:10:04.460Z,5.40
2018-10-19T03:12:39.091Z,5.70
2018-10-19T03:15:12.928Z,5.87
2018-10-19T03:20:21.711Z,6.22
2018-10-19T03:22:55.925Z,6.10
2018-10-19T03:28:03.731Z,5.67
2018-10-19T03:30:38.439Z,6.00
2018-10-19T03:33:12.729Z,6.50
2018-10-19T03:35:47.244Z,6.13
2018-10-19T03:38:22.689Z,5.83
2018-10-19T03:40:57.264Z,5.83
2018-10-19T03:43:31.350Z,6.17
2018-10-19T03:46:05.917Z,6.03
2018-10-19T03:51:13.885Z,6.40
2018-10-19T03:53:48.438Z,5.90
2018-10-19T03:56:22.278Z,6.10
2018-10-19T03:58:56.931Z,5.50
2018-10-19T04:01:31.287Z,5.60
2018-10-19T04:04:06.460Z,5.83
2018-10-19T04:06:40.788Z,6.00
2018-10-19T04:09:15.961Z,6.20
2018-10-19T04:14:25.771Z,5.93
2018-10-19T04:16:59.566Z,6.33
2018-10-19T04:19:34.344Z,6.20
2018-10-19T04:22:09.125Z,5.80
2018-10-19T04:24:43.339Z,6.40
2018-10-19T04:27:17.691Z,5.97
2018-10-19T04:29:52.611Z,5.70
2018-10-19T04:32:26.783Z,6.10
2018-10-19T04:37:35.609Z,5.80
2018-10-19T04:40:25.260Z,5.70
2018-10-19T04:42:59.780Z,6.15
2018-10-19T04:45:34.469Z,6.00
2018-10-19T04:48:08.899Z,6.33
2018-10-19T04:53:16.068Z,6.22
2018-10-19T04:55:50.312Z,5.53
2018-10-19T04:58:25.244Z,6.00
2018-10-19T05:01:00.459Z,6.23
2018-10-19T05:03:35.780Z,5.90
2018-10-19T05:06:10.413Z,5.30
2018-10-19T05:08:44.760Z,5.90
2018-10-19T05:11:18.901Z,5.50
2018-10-19T05:13:53.329Z,6.00
2018-10-19T05:16:27.652Z,5.53
2018-10-19T05:19:02.519Z,5.70
2018-10-19T05:21:42.581Z,5.77
2018-10-19T05:24:17.456Z,5.77
2018-10-19T05:26:52.255Z,5.55
2018-10-19T05:29:26.103Z,5.65
2018-10-19T05:32:01.156Z,5.80
2018-10-19T05:34:35.279Z,5.67
2018-10-19T05:37:09.468Z,5.28
2018-10-19T05:39:44.329Z,5.43
2018-10-19T05:42:18.777Z,5.50
2018-10-19T05:44:53.688Z,5.27
2018-10-19T05:47:28.241Z,5.27
2018-10-19T05:50:02.439Z,5.70
2018-10-19T05:52:37.816Z,5.17
2018-10-19T05:55:12.789Z,5.40
2018-10-19T05:57:47.399Z,5.80
2018-10-19T06:00:21.686Z,5.60
2018-10-19T06:02:56.785Z,5.50
2018-10-19T06:05:32.324Z,5.47
2018-10-19T06:08:06.888Z,5.10
2018-10-19T06:10:40.816Z,4.83
2018-10-19T06:13:14.254Z,4.80
2018-10-19T06:15:48.375Z,4.73
2018-10-19T06:18:22.923Z,4.43
2018-10-19T06:20:58.304Z,5.30
2018-10-19T06:23:32.741Z,5.40
2018-10-19T06:26:07.212Z,5.10
2018-10-19T06:28:41.474Z,5.47
2018-10-19T06:31:15.796Z,5.13
2018-10-19T06:33:50.557Z,4.90
2018-10-19T06:36:25.291Z,4.77
2018-10-19T06:38:59.796Z,4.93
2018-10-19T06:41:33.378Z,4.80
2018-10-19T06:44:07.589Z,5.40
2018-10-19T06:46:41.326Z,4.90
2018-10-19T06:49:15.791Z,5.10
2018-10-19T06:51:49.927Z,5.37
2018-10-19T06:56:56.648Z,4.75
2018-10-19T06:59:31.751Z,4.83
2018-10-19T07:02:06.532Z,4.73
2018-10-19T07:04:40.889Z,5.50
2018-10-19T07:07:14.845Z,5.50
2018-10-19T07:09:49.341Z,4.50
2018-10-19T07:12:23.332Z,5.10
2018-10-19T07:14:57.914Z,5.20
2018-10-19T07:20:06.039Z,5.00
2018-10-19T07:22:40.098Z,5.50
2018-10-19T07:25:14.494Z,4.90
2018-10-19T07:27:48.305Z,5.13
2018-10-19T07:30:23.672Z,5.33
2018-10-19T07:32:58.308Z,5.57
2018-10-19T07:35:32.650Z,4.90
2018-10-19T07:38:07.776Z,5.30
2018-10-19T07:40:42.130Z,5.03
2018-10-19T07:43:16.273Z,5.50
2018-10-19T07:45:50.874Z,5.23
2018-10-19T07:48:24.918Z,5.00
2018-10-19T07:50:58.384Z,5.07
2018-10-19T07:53:33.733Z,4.87
2018-10-19T07:56:08.489Z,5.03
2018-10-19T07:58:42.772Z,5.00
2018-10-19T08:01:16.682Z,5.07
2018-10-19T08:03:51.656Z,5.30
2018-10-19T08:06:25.790Z,5.20
2018-10-19T08:09:00.475Z,4.83
2018-10-19T08:11:34.661Z,5.60
2018-10-19T08:14:09.318Z,5.53
2018-10-19T08:16:43.259Z,5.40
2018-10-19T08:19:17.485Z,5.17
2018-10-19T08:21:51.670Z,5.17
2018-10-19T08:24:25.801Z,4.90
2018-10-19T08:27:00.097Z,5.47
2018-10-19T08:29:34.260Z,4.87
2018-10-19T08:32:10.345Z,5.13
2018-10-19T08:34:44.816Z,4.50
2018-10-19T08:37:19.792Z,4.90
2018-10-19T08:39:53.943Z,4.97
2018-10-19T08:45:01.811Z,4.83
2018-10-19T08:47:36.493Z,5.20
2018-10-19T08:50:11.331Z,4.87
2018-10-19T08:52:45.733Z,4.97
2018-10-19T08:55:19.718Z,4.83
2018-10-19T08:57:54.385Z,5.00
2018-10-19T09:00:28.394Z,3.83
2018-10-19T09:03:03.685Z,4.40
2018-10-19T09:05:38.893Z,4.47
2018-10-19T09:10:47.502Z,4.33
2018-10-19T09:13:21.799Z,4.57
2018-10-19T09:15:55.095Z,4.60
2018-10-19T09:18:28.438Z,4.42
2018-10-19T09:21:03.844Z,4.22
2018-10-19T09:23:37.869Z,4.10
2018-10-19T09:26:12.469Z,4.50
2018-10-19T09:28:46.248Z,4.58
2018-10-19T09:31:21.259Z,4.20
2018-10-19T09:33:55.354Z,4.08
2018-10-19T09:39:03.502Z,4.60
2018-10-19T09:41:37.731Z,4.57
2018-10-19T09:44:11.475Z,5.17
2018-10-19T09:46:45.659Z,3.87
2018-10-19T09:49:20.377Z,4.33
2018-10-19T09:51:54.304Z,4.53
2018-10-19T09:54:28.729Z,4.92
2018-10-19T09:57:03.172Z,4.30
2018-10-19T09:59:37.342Z,4.67
2018-10-19T10:02:11.735Z,4.10
2018-10-19T10:05:23.515Z,4.77
2018-10-19T10:12:41.784Z,4.90
2018-10-19T10:15:53.014Z,4.95
2018-10-19T10:21:37.779Z,4.05
2018-10-19T10:24:30.757Z,4.80
2018-10-19T10:27:23.476Z,4.40
2018-10-19T10:42:37.073Z,5.53
2018-10-19T10:45:29.826Z,5.05
2018-10-19T10:48:22.864Z,4.83
2018-10-19T10:51:16.263Z,4.78
2018-10-19T10:54:08.911Z,4.50
2018-10-19T10:59:53.262Z,5.58
2018-10-19T11:02:45.700Z,5.23
2018-10-19T11:05:38.464Z,4.90
2018-10-19T11:08:31.475Z,4.40
2018-10-19T11:14:12.150Z,4.97
2018-10-19T11:19:59.825Z,5.43
2018-10-19T11:22:53.313Z,5.40
2018-10-19T11:25:46.369Z,5.97
2018-10-19T11:28:38.756Z,5.53
2018-10-19T11:31:32.473Z,5.37
2018-10-19T11:34:25.841Z,5.23
2018-10-19T11:36:59.871Z,5.40
2018-10-19T11:43:32.790Z,5.83
2018-10-19T11:46:07.474Z,5.37
2018-10-19T11:52:35.843Z,5.43
2018-10-19T11:55:28.681Z,5.57
2018-10-19T11:58:21.604Z,5.12
2018-10-19T12:01:15.323Z,5.13
2018-10-19T12:04:08.184Z,5.25
2018-10-19T12:07:00.734Z,5.53
2018-10-19T12:18:35.281Z,5.50
2018-10-19T12:21:27.732Z,5.10
2018-10-19T12:24:20.376Z,5.60
2018-10-19T12:27:14.332Z,5.37
2018-10-19T12:30:07.592Z,5.78
2018-10-19T12:44:03.634Z,5.10
2018-10-19T12:47:38.793Z,5.47
2018-10-19T12:50:34.481Z,5.87
2018-10-19T16:27:29.773Z,3.80
2018-10-19T16:30:22.638Z,3.58
2018-10-19T16:35:53.715Z,4.07
2018-10-19T16:38:45.878Z,3.53
2018-10-19T16:41:38.466Z,4.00
2018-10-19T16:44:31.267Z,3.60
2018-10-19T16:47:23.743Z,3.40
2018-10-19T16:50:17.245Z,3.90
2018-10-19T16:56:26.753Z,3.70
2018-10-19T16:59:19.468Z,3.57
2018-10-19T17:02:12.559Z,3.17
2018-10-19T17:05:05.766Z,3.67
2018-10-19T17:07:39.695Z,3.53
2018-10-19T17:13:29.870Z,3.27
2018-10-19T17:16:22.479Z,3.60
2018-10-19T17:19:15.825Z,3.83
2018-10-19T17:22:09.242Z,3.80
2018-10-19T17:25:01.821Z,3.40
2018-10-19T17:27:54.463Z,3.33
2018-10-19T17:30:47.262Z,3.57
2018-10-19T17:33:21.124Z,3.80
2018-10-19T17:36:13.726Z,3.47
2018-10-19T17:39:08.538Z,3.45
2018-10-19T17:41:53.840Z,3.60
2018-10-19T17:44:46.462Z,3.63
2018-10-19T17:47:38.907Z,3.80
2018-10-19T17:50:31.454Z,3.80
2018-10-19T17:53:24.277Z,3.87
2018-10-19T17:56:16.847Z,4.33
2018-10-19T17:59:09.925Z,4.07
2018-10-19T18:04:54.299Z,3.87
2018-10-19T18:07:47.860Z,3.93
2018-10-19T18:10:40.568Z,3.85
2018-10-19T18:22:39.817Z,4.20
2018-10-19T18:25:32.668Z,3.53
2018-10-19T18:28:25.377Z,3.83
2018-10-19T18:31:18.251Z,4.33
2018-10-19T18:34:11.583Z,4.00
2018-10-19T18:37:03.851Z,4.70
2018-10-19T18:39:56.374Z,4.40
2018-10-19T18:42:30.375Z,4.63
2018-10-19T18:45:03.880Z,4.67
2018-10-19T18:53:28.266Z,4.37
2018-10-19T18:56:20.836Z,5.00
2018-10-19T18:59:13.711Z,4.80
2018-10-19T19:02:05.877Z,4.33
2018-10-19T19:04:59.358Z,4.57
2018-10-19T19:07:52.299Z,5.30
2018-10-19T19:10:46.245Z,4.03
2018-10-19T19:13:57.516Z,4.87
2018-10-19T19:16:50.456Z,5.10
2018-10-19T19:19:43.276Z,4.90
2018-10-19T19:22:35.726Z,5.67
2018-10-19T19:25:46.423Z,6.17
2018-10-19T19:28:39.279Z,5.17
2018-10-19T19:31:32.792Z,5.30
2018-10-19T19:34:24.116Z,7.07
2018-10-19T19:36:58.321Z,7.50
2018-10-19T19:42:58.676Z,9.30
2018-10-19T19:45:50.862Z,9.07
2018-10-19T20:03:54.794Z,8.07
2018-10-19T20:06:48.710Z,8.00
2018-10-19T20:09:41.252Z,7.25
2018-10-19T20:12:33.913Z,7.30
2018-10-19T20:18:18.544Z,7.80
2018-10-19T20:20:52.279Z,6.50
2018-10-19T20:23:44.900Z,6.90
2018-10-19T20:29:29.259Z,7.05
2018-10-19T20:32:22.000Z,7.33
2018-10-19T20:35:14.641Z,6.80
2018-10-19T20:38:07.752Z,7.00
2018-10-19T20:43:46.593Z,7.43
2018-10-19T20:47:09.826Z,7.30
2018-10-19T20:49:50.633Z,6.70
2018-10-19T20:52:43.410Z,6.87
2018-10-19T21:02:49.459Z,6.60
2018-10-19T21:06:18.315Z,6.67
2018-10-19T21:09:13.437Z,7.27
2018-10-19T21:12:06.269Z,7.37
2018-10-19T21:22:40.403Z,7.47
2018-10-19T21:27:22.464Z,6.93
2018-10-19T21:30:15.465Z,7.57
2018-10-19T21:33:08.465Z,7.83
2018-10-19T21:36:01.782Z,7.90
2018-10-19T21:38:54.785Z,7.37
2018-10-19T21:41:48.606Z,7.47
2018-10-19T21:48:04.639Z,7.87
2018-10-19T21:51:09.743Z,8.03
2018-10-19T21:53:50.788Z,8.17
2018-10-19T21:56:43.871Z,7.10
2018-10-19T21:59:37.816Z,6.93
2018-10-19T22:02:31.340Z,7.40
2018-10-19T22:05:05.825Z,7.37
2018-10-19T22:07:40.655Z,7.30
2018-10-19T22:10:14.834Z,7.40
2018-10-19T22:12:49.248Z,7.40
2018-10-19T22:18:08.740Z,7.53
2018-10-19T22:20:43.681Z,7.00
2018-10-19T22:23:17.714Z,6.83
2018-10-19T22:25:51.776Z,6.83
2018-10-19T22:28:25.677Z,7.77
2018-10-19T22:30:59.676Z,7.67
2018-10-19T22:33:33.886Z,7.70
2018-10-19T22:38:41.832Z,7.03
2018-10-19T22:41:16.332Z,7.17
2018-10-19T22:43:49.823Z,7.17
2018-10-19T22:46:23.630Z,7.17
2018-10-19T22:48:57.622Z,7.73
2018-10-19T22:51:31.285Z,7.23
2018-10-19T22:54:05.362Z,6.47
2018-10-19T22:56:39.474Z,7.60
2018-10-19T22:59:13.343Z,7.17
2018-10-19T23:01:47.279Z,6.60
2018-10-19T23:04:21.827Z,6.93
2018-10-19T23:06:57.633Z,7.00
2018-10-19T23:09:31.301Z,6.77
2018-10-19T23:12:05.413Z,7.10
2018-10-19T23:14:40.263Z,6.57
2018-10-19T23:17:14.674Z,7.00
2018-10-19T23:19:49.002Z,7.20
2018-10-19T23:22:23.432Z,6.90
2018-10-19T23:24:57.264Z,6.85
2018-10-19T23:27:31.781Z,6.67
2018-10-19T23:30:06.292Z,6.53
2018-10-19T23:32:40.123Z,7.27
2018-10-19T23:35:14.362Z,6.62
2018-10-19T23:37:48.361Z,6.70
2018-10-19T23:40:23.684Z,7.07
2018-10-19T23:42:58.476Z,6.63
2018-10-19T23:45:32.294Z,6.83
2018-10-19T23:48:07.598Z,7.10
2018-10-19T23:50:41.879Z,6.23
2018-10-19T23:55:49.807Z,6.75
2018-10-19T23:58:24.754Z,6.57
